Houari Boumediene Airport

DAAG · Algiers, Algeria

METAR history DAAG · Houari Boumediene Airport

Below you see METARs of the last few days. Select a year to browse through older METARs, from the year 2007 onwards.

December 5, 2022

Time Code Weather Temp. Visibility Ceiling Wind METAR/SPECI
11:00
V
19 °C 10 km+ - 160° 160° 12 kt METAR DAAG 051000Z 16012KT CAVOK 19/05 Q1017
10:30
V
20 °C 10 km+ - 170° 170° 14 kt METAR DAAG 050930Z 17014KT 140V200 CAVOK 20/04 Q1017
10:00
V
18 °C 10 km+ - 170° 170° 11 kt METAR DAAG 050900Z 17011KT 140V200 CAVOK 18/03 Q1017
09:30
V
19 °C 10 km+ - 170° 170° 8 kt METAR DAAG 050830Z 17008KT 140V230 CAVOK 19/04 Q1017
09:00
V
18 °C 10 km+ - 210° 210° 7 kt METAR DAAG 050800Z 21007KT 170V230 9999 FEW023 18/04 Q1017
08:30
V
18 °C 10 km+ - 170° 170° 4 kt METAR DAAG 050730Z 17004KT 120V260 CAVOK 18/03 Q1017
08:00
V
14 °C 10 km+ - 180° 180° 11 kt METAR DAAG 050700Z 18011KT 150V210 9999 FEW023 14/03 Q1017
07:30
V
17 °C 10 km+ - 180° 180° 9 - 19 kt METAR DAAG 050630Z 18009G19KT 120V230 9999 FEW023 17/03 Q1016
07:00
V
17 °C 10 km+ - 180° 180° 9 kt METAR DAAG 050600Z 18009KT 140V220 CAVOK 17/03 Q1016
06:30
V
17 °C 10 km+ - 170° 170° 12 kt METAR DAAG 050530Z 17012KT CAVOK 17/03 Q1016
06:00
V
16 °C 10 km+ - 170° 170° 11 kt METAR DAAG 050500Z 17011KT CAVOK 16/04 Q1016
05:30
V
15 °C 10 km+ - 160° 160° 10 kt METAR DAAG 050430Z 16010KT 130V190 CAVOK 15/04 Q1016
05:00
V
15 °C 10 km+ - 160° 160° 9 kt METAR DAAG 050400Z 16009KT CAVOK 15/03 Q1016
04:30
V
15 °C 10 km+ - 170° 170° 10 kt METAR DAAG 050330Z 17010KT CAVOK 15/03 Q1016
04:00
V
16 °C 10 km+ - 170° 170° 10 kt METAR DAAG 050300Z 17010KT CAVOK 16/03 Q1016
03:30
V
17 °C 10 km+ - 160° 160° 7 kt METAR DAAG 050230Z 16007KT CAVOK 17/03 Q1016
03:00
V
17 °C 10 km+ - 170° 170° 5 kt METAR DAAG 050200Z 17005KT CAVOK 17/03 Q1016
02:30
V
17 °C 10 km+ - 170° 170° 6 kt METAR DAAG 050130Z 17006KT 140V200 CAVOK 17/03 Q1016
02:00
V
17 °C 10 km+ - 170° 170° 5 kt METAR DAAG 050100Z 17005KT CAVOK 17/03 Q1016
01:30
V
18 °C 10 km+ - 160° 160° 9 kt METAR DAAG 050030Z 16009KT CAVOK 18/04 Q1016
01:00
V
18 °C 10 km+ - 170° 170° 7 kt METAR DAAG 050000Z 17007KT CAVOK 18/03 Q1016
00:30
V
16 °C 10 km+ - 180° 180° 6 kt METAR DAAG 042330Z 18006KT CAVOK 16/04 Q1016
00:00
V
17 °C 10 km+ - 180° 180° 6 kt METAR DAAG 042300Z 18006KT 160V220 CAVOK 17/04 Q1016

December 4, 2022

Time Code Weather Temp. Visibility Ceiling Wind METAR/SPECI
23:30
V
17 °C 10 km+ - 190° 190° 4 kt METAR DAAG 042230Z 19004KT CAVOK 17/03 Q1015
23:00
V
17 °C 10 km+ - 170° 170° 3 kt METAR DAAG 042200Z 17003KT CAVOK 17/04 Q1015
22:30
V
18 °C 10 km+ - 170° 170° 4 kt METAR DAAG 042130Z 17004KT CAVOK 18/04 Q1015
22:00
V
17 °C 10 km+ - 210° 210° 2 kt METAR DAAG 042100Z 21002KT CAVOK 17/05 Q1015
21:30
V
18 °C 10 km+ - 200° 200° 6 kt METAR DAAG 042030Z 20006KT CAVOK 18/05 Q1015
21:00
V
12 °C 10 km+ - 160° 160° 7 kt METAR DAAG 042000Z 16007KT CAVOK 12/08 Q1015
20:30
V
12 °C 10 km+ - 150° 150° 6 kt METAR DAAG 041930Z 15006KT CAVOK 12/09 Q1015
20:00
V
12 °C 10 km+ - 150° 150° 3 kt METAR DAAG 041900Z 15003KT CAVOK 12/09 Q1014
19:30
V
15 °C 10 km+ - 070° 070° 4 kt METAR DAAG 041830Z 07004KT CAVOK 15/09 Q1014
19:00
V
15 °C 10 km+ - 060° 060° 5 kt METAR DAAG 041800Z 06005KT CAVOK 15/09 Q1014
18:30
V
16 °C 10 km+ - 050° 050° 6 kt METAR DAAG 041730Z 05006KT CAVOK 16/09 Q1013
18:00
V
19 °C 10 km+ - 040° 040° 6 kt METAR DAAG 041700Z 04006KT CAVOK 19/08 Q1013
17:30
V
19 °C 10 km+ - 030° 030° 5 kt METAR DAAG 041630Z 03005KT CAVOK 19/10 Q1013
17:00
V
21 °C 10 km+ - 010° 010° 5 kt METAR DAAG 041600Z 01005KT CAVOK 21/10 Q1013
16:30
V
22 °C 10 km+ - 020° 020° 5 kt METAR DAAG 041530Z 02005KT CAVOK 22/09 Q1012
16:00
V
23 °C 10 km+ - Var 000° 0 kt METAR DAAG 041500Z 00000KT CAVOK 23/07 Q1012
15:30
V
23 °C 10 km+ - 290° 290° 4 kt METAR DAAG 041430Z 29004KT 260V320 CAVOK 23/06 Q1012
15:00
V
24 °C 10 km+ - 310° 310° 4 kt METAR DAAG 041400Z 31004KT 260V360 CAVOK 24/07 Q1012
14:30
V
23 °C 10 km+ - 280° 280° 3 kt METAR DAAG 041330Z 28003KT 230V320 CAVOK 23/05 Q1012
14:00
V
23 °C 10 km+ - 340° 340° 4 kt METAR DAAG 041300Z 34004KT 290V040 CAVOK 23/06 Q1012
13:30
V
23 °C 10 km+ - 290° 290° 3 kt METAR DAAG 041230Z 29003KT 220V330 CAVOK 23/06 Q1012
13:00
V
22 °C 10 km+ - 350° 350° 2 kt METAR DAAG 041200Z 35002KT CAVOK 22/06 Q1012
12:30
V
21 °C 10 km+ - Var Var 2 kt METAR DAAG 041130Z VRB02KT CAVOK 21/06 Q1012
12:00
V
20 °C 10 km+ - Var Var 2 kt METAR DAAG 041100Z VRB02KT CAVOK 20/08 Q1013
11:30
V
18 °C 10 km+ - Var Var 1 kt METAR DAAG 041030Z VRB01KT CAVOK 18/09 Q1013
11:00
V
18 °C 10 km+ - Var Var 2 kt METAR DAAG 041000Z VRB02KT CAVOK 18/10 Q1013
10:30
V
15 °C 10 km+ - Var Var 2 kt METAR DAAG 040930Z VRB02KT CAVOK 15/10 Q1013
10:00
V
14 °C 10 km+ - 250° 250° 2 kt METAR DAAG 040900Z 25002KT CAVOK 14/10 Q1013
09:30
V
11 °C 10 km+ - 230° 230° 3 kt METAR DAAG 040830Z 23003KT CAVOK 11/09 Q1013
09:00
V
8 °C 10 km+ - Var Var 1 kt METAR DAAG 040800Z VRB01KT CAVOK 08/07 Q1012
08:30
V
6 °C 10 km+ - 180° 180° 3 kt METAR DAAG 040730Z 18003KT 150V250 CAVOK 06/05 Q1012
08:00
V
5 °C 10 km+ - 190° 190° 3 kt METAR DAAG 040700Z 19003KT 160V260 CAVOK 05/04 Q1012
07:30
V
6 °C 10 km+ - 200° 200° 3 kt METAR DAAG 040630Z 20003KT 9999 FEW016 06/05 Q1012
07:00
V
7 °C 10 km+ - 200° 200° 4 kt METAR DAAG 040600Z 20004KT 9999 FEW015 07/06 Q1012
06:30
V
7 °C 10 km+ - 170° 170° 5 kt METAR DAAG 040530Z 17005KT 9999 FEW010 07/06 Q1012
06:00
V
6 °C 10 km+ - 180° 180° 6 kt METAR DAAG 040500Z 18006KT 9999 FEW010 06/05 Q1012
05:30
V
5 °C 8 km - 200° 200° 3 kt METAR DAAG 040430Z 20003KT 8000 FEW010 05/05 Q1012
05:00
V
5 °C 8 km - Var Var 2 kt METAR DAAG 040400Z VRB02KT 8000 FEW010 05/05 Q1011
04:30
V
5 °C 8 km - Var 000° 0 kt METAR DAAG 040330Z 00000KT 8000 FEW010 05/05 Q1011
04:00
M
6 °C 7 km - Var Var 1 kt METAR DAAG 040300Z VRB01KT 7000 FEW010 06/06 Q1011
03:30
M
7 °C 6 km - Var 000° 0 kt METAR DAAG 040230Z 00000KT 6000 FEW010 07/07 Q1011
03:00
M
7 °C 6 km - Var Var 2 kt METAR DAAG 040200Z VRB02KT 6000 FEW020TCU FEW023CB 07/06 Q1011
02:30
M
8 °C 7 km - Var 000° 0 kt METAR DAAG 040130Z 00000KT 7000 FEW020TCU FEW023CB 08/07 Q1011
02:00
V
7 °C 8 km - Var Var 1 kt METAR DAAG 040100Z VRB01KT 8000 FEW020TCU FEW023CB 07/07 Q1011
01:30
V
7 °C 8 km - 130° 130° 4 kt METAR DAAG 040030Z 13004KT 8000 1900NE BR FEW020TCU FEW023CB 07/07 Q1011
00:30
M
8 °C 7 km - Var Var 1 kt METAR DAAG 032330Z VRB01KT 7000 FEW020TCU FEW023CB 08/07 Q1012
00:00
V
8 °C 10 km+ - Var 000° 0 kt METAR DAAG 032300Z 00000KT 9999 FEW020TCU FEW023CB 08/08 Q1012

December 3, 2022

Time Code Weather Temp. Visibility Ceiling Wind METAR/SPECI
23:30
V
9 °C 10 km+ - 150° 150° 4 kt METAR DAAG 032230Z 15004KT 9999 FEW020TCU FEW023CB 09/08 Q1011
23:00
V
10 °C 10 km+ - 140° 140° 3 kt METAR DAAG 032200Z 14003KT 9999 FEW020TCU FEW023CB 10/08 Q1012
22:30
V
11 °C 10 km+ - 110° 110° 2 kt METAR DAAG 032130Z 11002KT 9999 FEW020TCU FEW023CB 11/10 Q1011
22:00
V
12 °C 10 km+ - 190° 190° 1 kt METAR DAAG 032100Z 19001KT 9999 FEW020TCU FEW023CB 12/10 Q1011
21:30
V
12 °C 10 km+ - 170° 170° 2 kt METAR DAAG 032030Z 17002KT 9999 FEW020TCU FEW023CB SCT080 12/11 Q1011
21:00
V
13 °C 10 km+ - 180° 180° 2 kt METAR DAAG 032000Z 18002KT 9999 FEW020TCU FEW023CB SCT080 13/10 Q1011
20:30
V
13 °C 10 km+ 8,000 ft Var Var 2 kt METAR DAAG 031930Z VRB02KT 9999 FEW020TCU FEW023CB BKN080 13/11 Q1011
20:00
V
13 °C 10 km+ 10,000 ft 180° 180° 3 kt METAR DAAG 031900Z 18003KT 9999 FEW020TCU FEW023CB BKN100 13/11 Q1010
19:30
V
13 °C 10 km+ 9,000 ft 160° 160° 3 kt METAR DAAG 031830Z 16003KT 9999 FEW020TCU FEW023CB BKN090 13/10 Q1010
19:00
V
14 °C 10 km+ 8,000 ft 170° 170° 3 kt METAR DAAG 031800Z 17003KT 9999 FEW020TCU FEW023CB BKN080 14/10 Q1010
18:30
V
14 °C 10 km+ - 260° 260° 5 kt METAR DAAG 031730Z 26005KT 9999 FEW020TCU FEW023CB SCT050 14/11 Q1010
18:00
V
14 °C 10 km+ - 260° 260° 6 kt METAR DAAG 031700Z 26006KT 9999 FEW020TCU FEW023CB SCT050 14/10 Q1009
17:30
V
15 °C 10 km+ 7,000 ft 270° 270° 6 kt METAR DAAG 031630Z 27006KT 9999 FEW020TCU FEW023CB BKN070 15/10 Q1009
17:00
V
16 °C 10 km+ 7,000 ft 260° 260° 6 kt METAR DAAG 031600Z 26006KT 9999 FEW020TCU FEW023CB BKN070 16/10 Q1009
16:30
V
16 °C 10 km+ 7,000 ft 270° 270° 7 kt METAR DAAG 031530Z 27007KT 9999 FEW020TCU FEW023CB BKN070 16/10 Q1009
16:00
V
16 °C 10 km+ 7,000 ft 260° 260° 9 kt METAR DAAG 031500Z 26009KT 240V300 9999 FEW020TCU FEW023CB BKN070 16/09 Q1008
15:30
V
17 °C 10 km+ 7,000 ft 230° 230° 9 kt METAR DAAG 031430Z 23009KT 9999 FEW020TCU FEW023CB BKN070 17/09 Q1008
15:00
V
17 °C 10 km+ 7,000 ft 240° 240° 6 kt METAR DAAG 031400Z 24006KT 200V270 9999 FEW020TCU FEW023CB BKN070 17/08 Q1008
14:30
V
17 °C 10 km+ 7,000 ft 260° 260° 7 kt METAR DAAG 031330Z 26007KT 9999 FEW020TCU BKN070 17/09 Q1008
14:00
V
16 °C 10 km+ 7,000 ft 250° 250° 8 kt METAR DAAG 031300Z 25008KT 9999 FEW020TCU BKN070 16/08 Q1008
13:30
V
16 °C 10 km+ 4,000 ft 240° 240° 8 kt METAR DAAG 031230Z 24008KT 9999 FEW020TCU BKN040 16/08 Q1008
13:00
V
16 °C 10 km+ 4,000 ft 230° 230° 8 kt METAR DAAG 031200Z 23008KT 9999 FEW020TCU BKN040 16/08 Q1008
12:30
V
16 °C 10 km+ 4,000 ft 250° 250° 7 kt METAR DAAG 031130Z 25007KT 9999 FEW020 BKN040 16/07 Q1009
12:00
V
15 °C 10 km+ 8,000 ft 240° 240° 5 kt METAR DAAG 031100Z 24005KT 9999 FEW020 SCT050 BKN080 15/09 Q1009
11:30
V
15 °C 10 km+ 8,000 ft 240° 240° 5 kt METAR DAAG 031030Z 24005KT 9999 FEW020 SCT050 BKN080 15/08 Q1009
11:00
V
15 °C 10 km+ 8,000 ft 210° 210° 4 kt METAR DAAG 031000Z 21004KT 9999 FEW020 SCT050 BKN080 15/09 Q1009

We and third parties follow your internet behavior on our website with cookies. If you continue, we assume you agree with our cookie policy.